Labuan, Malaysia
Current Conditions -  °F | °C
As of 9:00 AM on Thursday 23 Oct 2014 (Local Time) from WBKL Reporting Station
Thunderstorm Thunderstorm  
Wind Chill: 79°   Ceiling: 28000
Heat Index: 82°   Visibility: 4mi
Dew Point: 75°   Wind: 1mph
Humidity: 89%   Direction: 280°W
Pressure: 29.88"   Gusts: NA
Location:  5.29°N, 115.24°E
Report Text: WBKL 230100Z 28001KT 7000 TS SCT008 FEW013CB SCT040 BKN280 26/24 Q1012 RETSRA
Loading
Personal Weather Stations






























Interactive Weather Map
Tropical Storm Tracking
New forecast layout! Learn more

10-Day Weather Forecast

Advertisements
Track Severe Weather on mobile